sensor_id;sensor_type;location;lat;lon;timestamp;pressure;altitude;pressure_sealevel;temperature;humidity
59767;BME280;46248;58.364;25.582;2023-04-16T00:01:35;101724.22;;;1.74;53.61
59767;BME280;46248;58.364;25.582;2023-04-16T00:04:59;101720.78;;;1.72;53.22
59767;BME280;46248;58.364;25.582;2023-04-16T00:08:21;101721.63;;;1.69;53.49
59767;BME280;46248;58.364;25.582;2023-04-16T00:11:44;101713.00;;;1.69;53.66
59767;BME280;46248;58.364;25.582;2023-04-16T00:15:06;101708.72;;;1.68;53.60
59767;BME280;46248;58.364;25.582;2023-04-16T00:18:28;101708.72;;;1.69;53.87
59767;BME280;46248;58.364;25.582;2023-04-16T00:21:52;101711.31;;;1.74;53.41
59767;BME280;46248;58.364;25.582;2023-04-16T00:25:14;101672.53;;;1.55;53.53
59767;BME280;46248;58.364;25.582;2023-04-16T00:28:36;101707.88;;;1.78;53.77
59767;BME280;46248;58.364;25.582;2023-04-16T00:31:58;101710.50;;;1.84;53.44
59767;BME280;46248;58.364;25.582;2023-04-16T00:35:20;101713.09;;;1.87;53.66
59767;BME280;46248;58.364;25.582;2023-04-16T00:38:43;101711.38;;;1.92;53.50
59767;BME280;46248;58.364;25.582;2023-04-16T00:42:05;101707.97;;;1.95;53.82
59767;BME280;46248;58.364;25.582;2023-04-16T00:45:28;101709.69;;;1.99;54.18
59767;BME280;46248;58.364;25.582;2023-04-16T00:48:50;101702.78;;;1.99;53.74
59767;BME280;46248;58.364;25.582;2023-04-16T00:52:13;101710.56;;;2.01;54.44
59767;BME280;46248;58.364;25.582;2023-04-16T00:55:38;101714.00;;;2.04;54.07
59767;BME280;46248;58.364;25.582;2023-04-16T00:59:00;101722.66;;;2.10;53.96
59767;BME280;46248;58.364;25.582;2023-04-16T01:02:22;101683.84;;;1.88;53.39
59767;BME280;46248;58.364;25.582;2023-04-16T01:05:47;101703.66;;;2.01;54.06
59767;BME280;46248;58.364;25.582;2023-04-16T01:09:10;101707.13;;;2.08;53.86
59767;BME280;46248;58.364;25.582;2023-04-16T01:12:34;101707.97;;;2.05;53.77
59767;BME280;46248;58.364;25.582;2023-04-16T01:15:55;101711.44;;;2.14;54.25
59767;BME280;46248;58.364;25.582;2023-04-16T01:19:17;101709.72;;;2.14;53.83
59767;BME280;46248;58.364;25.582;2023-04-16T01:22:41;101703.69;;;2.14;53.57
59767;BME280;46248;58.364;25.582;2023-04-16T01:26:03;101708.88;;;2.14;54.18
59767;BME280;46248;58.364;25.582;2023-04-16T01:29:26;101707.16;;;2.16;53.57
59767;BME280;46248;58.364;25.582;2023-04-16T01:32:48;101702.84;;;2.16;53.87
59767;BME280;46248;58.364;25.582;2023-04-16T01:36:10;101699.41;;;2.17;53.67
59767;BME280;46248;58.364;25.582;2023-04-16T01:39:33;101703.72;;;2.18;53.60
59767;BME280;46248;58.364;25.582;2023-04-16T01:42:55;101695.09;;;2.18;53.71
59767;BME280;46248;58.364;25.582;2023-04-16T01:46:20;101691.63;;;2.11;53.85
59767;BME280;46248;58.364;25.582;2023-04-16T01:49:44;101687.34;;;2.15;53.66
59767;BME280;46248;58.364;25.582;2023-04-16T01:53:07;101686.47;;;2.14;53.65
59767;BME280;46248;58.364;25.582;2023-04-16T01:56:31;101676.16;;;2.13;53.62
59767;BME280;46248;58.364;25.582;2023-04-16T01:59:52;101670.97;;;2.08;53.75
59767;BME280;46248;58.364;25.582;2023-04-16T02:03:15;101682.19;;;2.16;53.82
59767;BME280;46248;58.364;25.582;2023-04-16T02:06:38;101683.03;;;2.17;53.90
59767;BME280;46248;58.364;25.582;2023-04-16T02:10:00;101676.13;;;2.14;54.15
59767;BME280;46248;58.364;25.582;2023-04-16T02:13:23;101678.75;;;2.19;54.03
59767;BME280;46248;58.364;25.582;2023-04-16T02:16:45;101677.00;;;2.21;54.02
59767;BME280;46248;58.364;25.582;2023-04-16T02:20:08;101659.78;;;2.15;53.87
59767;BME280;46248;58.364;25.582;2023-04-16T02:23:30;101678.75;;;2.22;53.95
59767;BME280;46248;58.364;25.582;2023-04-16T02:26:52;101679.59;;;2.24;53.97
59767;BME280;46248;58.364;25.582;2023-04-16T02:30:15;101682.19;;;2.24;54.53
59767;BME280;46248;58.364;25.582;2023-04-16T02:33:37;101666.66;;;2.18;54.17
59767;BME280;46248;58.364;25.582;2023-04-16T02:36:59;101680.50;;;2.27;54.04
59767;BME280;46248;58.364;25.582;2023-04-16T02:40:21;101677.03;;;2.27;54.19
59767;BME280;46248;58.364;25.582;2023-04-16T02:43:43;101674.44;;;2.28;54.07
59767;BME280;46248;58.364;25.582;2023-04-16T02:47:06;101684.81;;;2.27;54.25
59767;BME280;46248;58.364;25.582;2023-04-16T02:50:28;101674.47;;;2.27;55.03
59767;BME280;46248;58.364;25.582;2023-04-16T02:53:50;101672.72;;;2.26;54.38
59767;BME280;46248;58.364;25.582;2023-04-16T02:57:13;101676.16;;;2.26;54.79
59767;BME280;46248;58.364;25.582;2023-04-16T03:00:34;101672.72;;;2.27;54.55
59767;BME280;46248;58.364;25.582;2023-04-16T03:03:59;101674.47;;;2.27;54.61
59767;BME280;46248;58.364;25.582;2023-04-16T03:07:21;101673.56;;;2.26;55.18
59767;BME280;46248;58.364;25.582;2023-04-16T03:10:43;101672.72;;;2.26;54.86
59767;BME280;46248;58.364;25.582;2023-04-16T03:14:05;101671.88;;;2.25;54.88
59767;BME280;46248;58.364;25.582;2023-04-16T03:17:27;101671.88;;;2.25;54.90
59767;BME280;46248;58.364;25.582;2023-04-16T03:20:51;101668.41;;;2.25;55.15
59767;BME280;46248;58.364;25.582;2023-04-16T03:24:13;101677.00;;;2.24;55.29
59767;BME280;46248;58.364;25.582;2023-04-16T03:27:35;101657.22;;;2.15;55.41
59767;BME280;46248;58.364;25.582;2023-04-16T03:30:59;101676.16;;;2.25;55.38
59767;BME280;46248;58.364;25.582;2023-04-16T03:34:21;101676.16;;;2.25;55.21
59767;BME280;46248;58.364;25.582;2023-04-16T03:37:44;101675.31;;;2.24;55.10
59767;BME280;46248;58.364;25.582;2023-04-16T03:41:06;101670.13;;;2.23;55.33
59767;BME280;46248;58.364;25.582;2023-04-16T03:44:29;101670.13;;;2.26;55.76
59767;BME280;46248;58.364;25.582;2023-04-16T03:47:51;101670.16;;;2.27;55.36
59767;BME280;46248;58.364;25.582;2023-04-16T03:51:13;101669.28;;;2.30;55.82
59767;BME280;46248;58.364;25.582;2023-04-16T03:54:36;101652.91;;;2.23;55.54
59767;BME280;46248;58.364;25.582;2023-04-16T03:57:58;101661.53;;;2.32;55.99
59767;BME280;46248;58.364;25.582;2023-04-16T04:01:22;101668.44;;;2.37;55.59
59767;BME280;46248;58.364;25.582;2023-04-16T04:04:45;101658.09;;;2.31;56.04
59767;BME280;46248;58.364;25.582;2023-04-16T04:08:07;101658.94;;;2.44;56.08
59767;BME280;46248;58.364;25.582;2023-04-16T04:11:31;101655.50;;;2.43;55.54
59767;BME280;46248;58.364;25.582;2023-04-16T04:14:58;101664.97;;;2.50;55.56
59767;BME280;46248;58.364;25.582;2023-04-16T04:18:20;101658.97;;;2.50;55.96
59767;BME280;46248;58.364;25.582;2023-04-16T04:21:42;101668.44;;;2.56;55.39
59767;BME280;46248;58.364;25.582;2023-04-16T04:25:04;101658.97;;;2.59;55.36
59767;BME280;46248;58.364;25.582;2023-04-16T04:28:29;101664.13;;;2.62;55.62
59767;BME280;46248;58.364;25.582;2023-04-16T04:31:52;101666.72;;;2.67;55.77
59767;BME280;46248;58.364;25.582;2023-04-16T04:35:14;101660.69;;;2.69;55.63
59767;BME280;46248;58.364;25.582;2023-04-16T04:38:36;101650.34;;;2.66;55.07
59767;BME280;46248;58.364;25.582;2023-04-16T04:41:58;101651.22;;;2.73;55.60
59767;BME280;46248;58.364;25.582;2023-04-16T04:45:24;101670.16;;;2.80;55.64
59767;BME280;46248;58.364;25.582;2023-04-16T04:48:46;101660.66;;;2.83;55.64
59767;BME280;46248;58.364;25.582;2023-04-16T04:52:08;101658.09;;;2.83;55.68
59767;BME280;46248;58.364;25.582;2023-04-16T04:55:31;101663.25;;;2.91;55.44
59767;BME280;46248;58.364;25.582;2023-04-16T04:58:53;101660.66;;;2.97;56.34
59767;BME280;46248;58.364;25.582;2023-04-16T05:02:17;101664.94;;;3.04;56.29
59767;BME280;46248;58.364;25.582;2023-04-16T05:05:40;101660.63;;;3.09;55.54
59767;BME280;46248;58.364;25.582;2023-04-16T05:09:02;101664.94;;;3.15;55.46
59767;BME280;46248;58.364;25.582;2023-04-16T05:12:24;101662.34;;;3.21;56.06
59767;BME280;46248;58.364;25.582;2023-04-16T05:15:46;101653.69;;;3.25;55.38
59767;BME280;46248;58.364;25.582;2023-04-16T05:19:12;101651.06;;;3.33;54.97
59767;BME280;46248;58.364;25.582;2023-04-16T05:22:34;101640.72;;;3.39;55.98
59767;BME280;46248;58.364;25.582;2023-04-16T05:25:56;101655.31;;;3.48;56.01
59767;BME280;46248;58.364;25.582;2023-04-16T05:29:17;101652.72;;;3.51;55.26
59767;BME280;46248;58.364;25.582;2023-04-16T05:32:40;101653.59;;;3.56;55.81
59767;BME280;46248;58.364;25.582;2023-04-16T05:36:03;101653.56;;;3.60;55.90
59767;BME280;46248;58.364;25.582;2023-04-16T05:39:26;101650.91;;;3.71;55.23
59767;BME280;46248;58.364;25.582;2023-04-16T05:42:48;101648.28;;;3.80;56.61
59767;BME280;46248;58.364;25.582;2023-04-16T05:46:09;101645.69;;;3.83;55.16
59767;BME280;46248;58.364;25.582;2023-04-16T05:49:31;101649.94;;;3.92;55.46
59767;BME280;46248;58.364;25.582;2023-04-16T05:52:55;101633.53;;;3.95;55.04
59767;BME280;46248;58.364;25.582;2023-04-16T05:56:17;101645.56;;;4.06;55.22
59767;BME280;46248;58.364;25.582;2023-04-16T05:59:38;101648.91;;;4.19;55.19
59767;BME280;46248;58.364;25.582;2023-04-16T06:03:01;101651.44;;;4.28;54.52
59767;BME280;46248;58.364;25.582;2023-04-16T06:06:23;101650.50;;;4.39;54.30
59767;BME280;46248;58.364;25.582;2023-04-16T06:09:48;101645.25;;;4.49;54.88
59767;BME280;46248;58.364;25.582;2023-04-16T06:13:10;101649.47;;;4.61;54.49
59767;BME280;46248;58.364;25.582;2023-04-16T06:16:33;101649.38;;;4.73;54.40
59767;BME280;46248;58.364;25.582;2023-04-16T06:19:55;101644.03;;;4.89;53.90
59767;BME280;46248;58.364;25.582;2023-04-16T06:23:17;101651.66;;;5.04;53.88
59767;BME280;46248;58.364;25.582;2023-04-16T06:26:44;101642.03;;;5.14;53.79
59767;BME280;46248;58.364;25.582;2023-04-16T06:30:11;101646.94;;;5.38;53.46
59767;BME280;46248;58.364;25.582;2023-04-16T06:33:33;101652.72;;;5.62;52.64
59767;BME280;46248;58.364;25.582;2023-04-16T06:36:54;101646.56;;;5.72;52.28
59767;BME280;46248;58.364;25.582;2023-04-16T06:40:16;101647.97;;;5.97;52.27
59767;BME280;46248;58.364;25.582;2023-04-16T06:43:40;101645.09;;;6.17;52.11
59767;BME280;46248;58.364;25.582;2023-04-16T06:47:02;101645.66;;;6.36;50.72
59767;BME280;46248;58.364;25.582;2023-04-16T06:50:24;101629.84;;;6.49;51.44
59767;BME280;46248;58.364;25.582;2023-04-16T06:53:47;101639.69;;;6.82;50.91
59767;BME280;46248;58.364;25.582;2023-04-16T06:57:09;101650.44;;;7.10;50.03
59767;BME280;46248;58.364;25.582;2023-04-16T07:00:33;101640.53;;;7.29;48.87
59767;BME280;46248;58.364;25.582;2023-04-16T07:03:55;101643.03;;;7.34;49.08
59767;BME280;46248;58.364;25.582;2023-04-16T07:07:18;101636.75;;;7.44;48.39
59767;BME280;46248;58.364;25.582;2023-04-16T07:10:40;101630.44;;;7.56;48.57
59767;BME280;46248;58.364;25.582;2023-04-16T07:14:02;101628.38;;;7.72;48.55
59767;BME280;46248;58.364;25.582;2023-04-16T07:17:25;101630.84;;;7.78;47.49
59767;BME280;46248;58.364;25.582;2023-04-16T07:20:47;101629.97;;;7.77;46.89
59767;BME280;46248;58.364;25.582;2023-04-16T07:24:12;101629.09;;;7.78;47.01
59767;BME280;46248;58.364;25.582;2023-04-16T07:27:36;101631.59;;;7.83;46.53
59767;BME280;46248;58.364;25.582;2023-04-16T07:30:58;101628.06;;;7.86;45.84
59767;BME280;46248;58.364;25.582;2023-04-16T07:34:22;101634.03;;;7.91;46.50
59767;BME280;46248;58.364;25.582;2023-04-16T07:37:44;101636.53;;;7.95;45.68
59767;BME280;46248;58.364;25.582;2023-04-16T07:41:07;101637.28;;;8.02;46.49
59767;BME280;46248;58.364;25.582;2023-04-16T07:44:29;101632.72;;;8.10;45.56
59767;BME280;46248;58.364;25.582;2023-04-16T07:47:51;101632.66;;;8.13;44.65
59767;BME280;46248;58.364;25.582;2023-04-16T07:51:15;101644.66;;;8.20;46.09
59767;BME280;46248;58.364;25.582;2023-04-16T07:54:37;101638.25;;;8.34;45.75
59767;BME280;46248;58.364;25.582;2023-04-16T07:57:59;101640.53;;;8.49;45.02
59767;BME280;46248;58.364;25.582;2023-04-16T08:01:22;101640.44;;;8.54;44.98
59767;BME280;46248;58.364;25.582;2023-04-16T08:04:44;101640.38;;;8.55;44.51
59767;BME280;46248;58.364;25.582;2023-04-16T08:08:07;101642.97;;;8.55;45.05
59767;BME280;46248;58.364;25.582;2023-04-16T08:11:30;101647.19;;;8.61;45.74
59767;BME280;46248;58.364;25.582;2023-04-16T08:14:52;101639.97;;;8.70;45.27
59767;BME280;46248;58.364;25.582;2023-04-16T08:18:14;101645.22;;;8.70;43.73
59767;BME280;46248;58.364;25.582;2023-04-16T08:21:36;101637.50;;;8.66;44.58
59767;BME280;46248;58.364;25.582;2023-04-16T08:24:59;101645.38;;;8.64;44.75
59767;BME280;46248;58.364;25.582;2023-04-16T08:28:21;101644.56;;;8.62;43.83
59767;BME280;46248;58.364;25.582;2023-04-16T08:31:43;101639.09;;;8.71;44.80
59767;BME280;46248;58.364;25.582;2023-04-16T08:35:06;101641.41;;;8.84;43.72
59767;BME280;46248;58.364;25.582;2023-04-16T08:38:29;101642.88;;;8.94;44.20
59767;BME280;46248;58.364;25.582;2023-04-16T08:41:53;101641.03;;;8.98;43.60
59767;BME280;46248;58.364;25.582;2023-04-16T08:45:16;101643.53;;;9.02;43.31
59767;BME280;46248;58.364;25.582;2023-04-16T08:48:41;101634.84;;;9.02;42.99
59767;BME280;46248;58.364;25.582;2023-04-16T08:52:05;101633.84;;;9.06;44.26
59767;BME280;46248;58.364;25.582;2023-04-16T08:55:32;101638.91;;;9.12;43.72
59767;BME280;46248;58.364;25.582;2023-04-16T08:58:58;101638.84;;;9.13;42.72
59767;BME280;46248;58.364;25.582;2023-04-16T09:02:24;101635.72;;;9.32;43.60
59767;BME280;46248;58.364;25.582;2023-04-16T09:05:48;101638.53;;;9.55;42.24
59767;BME280;46248;58.364;25.582;2023-04-16T09:09:11;101635.44;;;9.72;42.79
59767;BME280;46248;58.364;25.582;2023-04-16T09:12:34;101630.69;;;9.85;42.67
59767;BME280;46248;58.364;25.582;2023-04-16T09:15:58;101621.84;;;9.89;42.20
59767;BME280;46248;58.364;25.582;2023-04-16T09:19:20;101628.88;;;10.15;42.46
59767;BME280;46248;58.364;25.582;2023-04-16T09:22:44;101639.16;;;10.21;41.63
59767;BME280;46248;58.364;25.582;2023-04-16T09:26:06;101634.88;;;10.19;41.95
59767;BME280;46248;58.364;25.582;2023-04-16T09:29:35;101606.75;;;9.97;41.25
59767;BME280;46248;58.364;25.582;2023-04-16T09:33:12;101638.22;;;10.24;38.46
59767;BME280;46248;58.364;25.582;2023-04-16T09:36:36;101640.38;;;10.39;41.18
59767;BME280;46248;58.364;25.582;2023-04-16T09:39:59;101636.81;;;10.40;40.64
59767;BME280;46248;58.364;25.582;2023-04-16T09:43:21;101618.88;;;10.29;40.64
59767;BME280;46248;58.364;25.582;2023-04-16T09:46:43;101637.66;;;10.42;39.50
59767;BME280;46248;58.364;25.582;2023-04-16T09:50:08;101645.31;;;10.48;41.08
59767;BME280;46248;58.364;25.582;2023-04-16T09:53:32;101640.59;;;10.58;39.46
59767;BME280;46248;58.364;25.582;2023-04-16T09:56:55;101643.03;;;10.64;38.84
59767;BME280;46248;58.364;25.582;2023-04-16T10:00:17;101637.75;;;10.66;39.57
59767;BME280;46248;58.364;25.582;2023-04-16T10:03:40;101634.72;;;10.78;38.96
59767;BME280;46248;58.364;25.582;2023-04-16T10:07:04;101620.75;;;10.77;39.26
59767;BME280;46248;58.364;25.582;2023-04-16T10:10:25;101623.41;;;11.01;38.42
59767;BME280;46248;58.364;25.582;2023-04-16T10:13:48;101634.03;;;11.21;37.46
59767;BME280;46248;58.364;25.582;2023-04-16T10:17:11;101626.75;;;11.30;36.95
59767;BME280;46248;58.364;25.582;2023-04-16T10:20:32;101630.59;;;11.44;36.88
59767;BME280;46248;58.364;25.582;2023-04-16T10:23:56;101628.53;;;11.53;35.07
59767;BME280;46248;58.364;25.582;2023-04-16T10:27:19;101625.63;;;11.60;36.86
59767;BME280;46248;58.364;25.582;2023-04-16T10:30:42;101611.19;;;11.72;36.56
59767;BME280;46248;58.364;25.582;2023-04-16T10:34:12;101618.69;;;11.81;34.78
59767;BME280;46248;58.364;25.582;2023-04-16T10:37:36;101609.25;;;11.77;34.44
59767;BME280;46248;58.364;25.582;2023-04-16T10:41:02;101622.72;;;11.68;33.76
59767;BME280;46248;58.364;25.582;2023-04-16T10:44:24;101615.75;;;11.67;34.71
59767;BME280;46248;58.364;25.582;2023-04-16T10:47:46;101613.63;;;11.77;35.75
59767;BME280;46248;58.364;25.582;2023-04-16T10:51:22;101609.97;;;11.81;34.33
59767;BME280;46248;58.364;25.582;2023-04-16T10:54:45;101619.63;;;11.80;33.53
59767;BME280;46248;58.364;25.582;2023-04-16T10:58:27;101615.34;;;11.78;32.99
59767;BME280;46248;58.364;25.582;2023-04-16T11:01:51;101601.53;;;11.73;34.12
59767;BME280;46248;58.364;25.582;2023-04-16T11:05:13;101622.69;;;11.91;33.03
59767;BME280;46248;58.364;25.582;2023-04-16T11:08:35;101622.41;;;11.99;33.18
59767;BME280;46248;58.364;25.582;2023-04-16T11:12:14;101612.59;;;12.04;32.39
59767;BME280;46248;58.364;25.582;2023-04-16T11:15:39;101621.53;;;12.21;32.98
59767;BME280;46248;58.364;25.582;2023-04-16T11:19:02;101615.13;;;12.28;31.28
59767;BME280;46248;58.364;25.582;2023-04-16T11:22:24;101603.28;;;12.18;31.77
59767;BME280;46248;58.364;25.582;2023-04-16T11:25:46;101626.34;;;12.31;30.54
59767;BME280;46248;58.364;25.582;2023-04-16T11:29:13;101628.69;;;12.39;31.82
59767;BME280;46248;58.364;25.582;2023-04-16T11:32:37;101635.31;;;12.48;32.22
59767;BME280;46248;58.364;25.582;2023-04-16T11:35:59;101641.44;;;12.48;31.54
59767;BME280;46248;58.364;25.582;2023-04-16T11:39:22;101628.88;;;12.55;32.75
59767;BME280;46248;58.364;25.582;2023-04-16T11:42:44;101631.13;;;12.64;31.15
59767;BME280;46248;58.364;25.582;2023-04-16T11:46:06;101629.59;;;12.58;31.54
59767;BME280;46248;58.364;25.582;2023-04-16T11:49:48;101635.06;;;12.54;30.39
59767;BME280;46248;58.364;25.582;2023-04-16T11:53:10;101638.34;;;12.38;31.19
59767;BME280;46248;58.364;25.582;2023-04-16T11:56:34;101633.25;;;12.34;32.57
59767;BME280;46248;58.364;25.582;2023-04-16T11:59:57;101636.38;;;12.44;32.02
59767;BME280;46248;58.364;25.582;2023-04-16T12:03:36;101638.50;;;12.56;31.02
59767;BME280;46248;58.364;25.582;2023-04-16T12:07:07;101641.25;;;12.53;30.48
59767;BME280;46248;58.364;25.582;2023-04-16T12:10:33;101636.38;;;12.44;32.31
59767;BME280;46248;58.364;25.582;2023-04-16T12:14:13;101642.91;;;12.33;30.72
59767;BME280;46248;58.364;25.582;2023-04-16T12:17:37;101642.91;;;12.33;31.68
59767;BME280;46248;58.364;25.582;2023-04-16T12:21:03;101643.75;;;12.34;33.33
59767;BME280;46248;58.364;25.582;2023-04-16T12:24:31;101638.38;;;12.37;32.74
59767;BME280;46248;58.364;25.582;2023-04-16T12:27:54;101617.94;;;12.23;33.43
59767;BME280;46248;58.364;25.582;2023-04-16T12:31:17;101643.75;;;12.34;32.16
59767;BME280;46248;58.364;25.582;2023-04-16T12:34:57;101632.97;;;12.20;33.97
59767;BME280;46248;58.364;25.582;2023-04-16T12:38:19;101635.66;;;12.18;34.22
59767;BME280;46248;58.364;25.582;2023-04-16T12:41:45;101636.47;;;12.20;34.66
59767;BME280;46248;58.364;25.582;2023-04-16T12:45:07;101635.09;;;12.10;34.44
59767;BME280;46248;58.364;25.582;2023-04-16T12:48:29;101643.41;;;11.99;34.49
59767;BME280;46248;58.364;25.582;2023-04-16T12:51:51;101645.91;;;11.79;35.22
59767;BME280;46248;58.364;25.582;2023-04-16T12:55:13;101638.28;;;11.73;35.72
59767;BME280;46248;58.364;25.582;2023-04-16T12:58:36;101636.69;;;11.68;35.79
59767;BME280;46248;58.364;25.582;2023-04-16T13:01:59;101634.34;;;11.61;35.38
59767;BME280;46248;58.364;25.582;2023-04-16T13:05:22;101640.03;;;11.49;35.17
59767;BME280;46248;58.364;25.582;2023-04-16T13:08:44;101635.88;;;11.43;34.68
59767;BME280;46248;58.364;25.582;2023-04-16T13:12:06;101635.44;;;11.32;34.93
59767;BME280;46248;58.364;25.582;2023-04-16T13:15:30;101627.09;;;11.20;34.63
59767;BME280;46248;58.364;25.582;2023-04-16T13:18:52;101643.56;;;11.24;35.20
59767;BME280;46248;58.364;25.582;2023-04-16T13:22:14;101640.34;;;11.16;34.84
59767;BME280;46248;58.364;25.582;2023-04-16T13:25:37;101648.56;;;11.07;35.70
59767;BME280;46248;58.364;25.582;2023-04-16T13:28:59;101638.34;;;10.99;35.85
59767;BME280;46248;58.364;25.582;2023-04-16T13:32:22;101640.22;;;10.95;35.55
59767;BME280;46248;58.364;25.582;2023-04-16T13:35:44;101641.19;;;10.93;36.14
59767;BME280;46248;58.364;25.582;2023-04-16T13:39:06;101639.56;;;10.89;36.31
59767;BME280;46248;58.364;25.582;2023-04-16T13:42:31;101639.78;;;10.83;35.25
59767;BME280;46248;58.364;25.582;2023-04-16T13:45:52;101635.59;;;10.77;36.02
59767;BME280;46248;58.364;25.582;2023-04-16T13:49:16;101633.03;;;10.75;36.09
59767;BME280;46248;58.364;25.582;2023-04-16T13:52:38;101634.91;;;10.72;36.71
59767;BME280;46248;58.364;25.582;2023-04-16T13:56:00;101639.34;;;10.70;36.35
59767;BME280;46248;58.364;25.582;2023-04-16T13:59:23;101637.69;;;10.67;37.00
59767;BME280;46248;58.364;25.582;2023-04-16T14:02:46;101637.56;;;10.70;36.96
59767;BME280;46248;58.364;25.582;2023-04-16T14:06:10;101630.66;;;10.68;36.62
59767;BME280;46248;58.364;25.582;2023-04-16T14:09:33;101638.63;;;10.65;37.12
59767;BME280;46248;58.364;25.582;2023-04-16T14:12:55;101630.78;;;10.65;36.47
59767;BME280;46248;58.364;25.582;2023-04-16T14:16:17;101634.19;;;10.68;36.99
59767;BME280;46248;58.364;25.582;2023-04-16T14:19:39;101633.19;;;10.71;37.01
59767;BME280;46248;58.364;25.582;2023-04-16T14:23:03;101635.81;;;10.71;36.89
59767;BME280;46248;58.364;25.582;2023-04-16T14:26:24;101637.53;;;10.72;37.10
59767;BME280;46248;58.364;25.582;2023-04-16T14:29:47;101631.56;;;10.68;36.88
59767;BME280;46248;58.364;25.582;2023-04-16T14:33:08;101633.28;;;10.68;37.05
59767;BME280;46248;58.364;25.582;2023-04-16T14:36:31;101627.31;;;10.64;37.14
59767;BME280;46248;58.364;25.582;2023-04-16T14:39:54;101628.31;;;10.60;37.07
59767;BME280;46248;58.364;25.582;2023-04-16T14:43:16;101626.63;;;10.59;37.09
59767;BME280;46248;58.364;25.582;2023-04-16T14:46:37;101627.38;;;10.63;37.47
59767;BME280;46248;58.364;25.582;2023-04-16T14:50:00;101626.34;;;10.67;37.45
59767;BME280;46248;58.364;25.582;2023-04-16T14:53:23;101628.88;;;10.70;37.64
59767;BME280;46248;58.364;25.582;2023-04-16T14:56:46;101630.63;;;10.69;38.11
59767;BME280;46248;58.364;25.582;2023-04-16T15:00:09;101628.16;;;10.65;37.62
59767;BME280;46248;58.364;25.582;2023-04-16T15:03:33;101630.03;;;10.61;37.90
59767;BME280;46248;58.364;25.582;2023-04-16T15:06:55;101628.47;;;10.55;38.14
59767;BME280;46248;58.364;25.582;2023-04-16T15:10:18;101625.91;;;10.54;38.10
59767;BME280;46248;58.364;25.582;2023-04-16T15:13:42;101625.91;;;10.54;38.49
59767;BME280;46248;58.364;25.582;2023-04-16T15:17:04;101633.88;;;10.51;38.92
59767;BME280;46248;58.364;25.582;2023-04-16T15:20:26;101640.81;;;10.52;38.90
59767;BME280;46248;58.364;25.582;2023-04-16T15:23:47;101636.63;;;10.46;39.19
59767;BME280;46248;58.364;25.582;2023-04-16T15:27:09;101635.84;;;10.44;39.51
59767;BME280;46248;58.364;25.582;2023-04-16T15:30:36;101637.66;;;10.42;39.39
59767;BME280;46248;58.364;25.582;2023-04-16T15:33:58;101646.44;;;10.40;39.36
59767;BME280;46248;58.364;25.582;2023-04-16T15:37:21;101640.50;;;10.35;39.73
59767;BME280;46248;58.364;25.582;2023-04-16T15:40:42;101620.31;;;10.10;39.69
59767;BME280;46248;58.364;25.582;2023-04-16T15:44:05;101644.28;;;10.24;39.83
59767;BME280;46248;58.364;25.582;2023-04-16T15:47:28;101644.38;;;10.23;40.08
59767;BME280;46248;58.364;25.582;2023-04-16T15:50:50;101645.34;;;10.19;39.72
59767;BME280;46248;58.364;25.582;2023-04-16T15:54:13;101647.16;;;10.17;40.18
59767;BME280;46248;58.364;25.582;2023-04-16T15:57:35;101642.06;;;10.12;40.19
59767;BME280;46248;58.364;25.582;2023-04-16T16:00:56;101644.75;;;10.11;40.75
59767;BME280;46248;58.364;25.582;2023-04-16T16:04:20;101655.28;;;10.07;41.13
59767;BME280;46248;58.364;25.582;2023-04-16T16:07:43;101649.38;;;10.01;41.48
59767;BME280;46248;58.364;25.582;2023-04-16T16:11:05;101646.00;;;9.97;41.31
59767;BME280;46248;58.364;25.582;2023-04-16T16:14:27;101648.81;;;9.91;41.73
59767;BME280;46248;58.364;25.582;2023-04-16T16:17:49;101649.72;;;9.90;41.60
59767;BME280;46248;58.364;25.582;2023-04-16T16:21:14;101646.25;;;9.90;41.87
59767;BME280;46248;58.364;25.582;2023-04-16T16:24:36;101648.88;;;9.90;41.86
59767;BME280;46248;58.364;25.582;2023-04-16T16:27:58;101647.22;;;9.87;42.01
59767;BME280;46248;58.364;25.582;2023-04-16T16:31:21;101654.31;;;9.83;42.00
59767;BME280;46248;58.364;25.582;2023-04-16T16:34:43;101653.47;;;9.81;42.33
59767;BME280;46248;58.364;25.582;2023-04-16T16:38:07;101653.50;;;9.80;42.36
59767;BME280;46248;58.364;25.582;2023-04-16T16:41:29;101657.09;;;9.77;42.51
59767;BME280;46248;58.364;25.582;2023-04-16T16:44:51;101665.03;;;9.74;42.57
59767;BME280;46248;58.364;25.582;2023-04-16T16:48:16;101669.44;;;9.72;42.79
59767;BME280;46248;58.364;25.582;2023-04-16T16:51:38;101661.69;;;9.69;43.06
59767;BME280;46248;58.364;25.582;2023-04-16T16:55:03;101658.31;;;9.66;42.98
59767;BME280;46248;58.364;25.582;2023-04-16T16:58:24;101671.50;;;9.61;42.78
59767;BME280;46248;58.364;25.582;2023-04-16T17:01:47;101668.22;;;9.54;43.36
59767;BME280;46248;58.364;25.582;2023-04-16T17:05:09;101670.00;;;9.52;43.90
59767;BME280;46248;58.364;25.582;2023-04-16T17:08:31;101666.84;;;9.41;43.00
59767;BME280;46248;58.364;25.582;2023-04-16T17:11:55;101672.88;;;9.43;43.97
59767;BME280;46248;58.364;25.582;2023-04-16T17:15:17;101680.03;;;9.36;43.77
59767;BME280;46248;58.364;25.582;2023-04-16T17:18:41;101675.84;;;9.31;44.25
59767;BME280;46248;58.364;25.582;2023-04-16T17:22:03;101676.84;;;9.25;44.32
59767;BME280;46248;58.364;25.582;2023-04-16T17:25:25;101674.31;;;9.22;43.76
59767;BME280;46248;58.364;25.582;2023-04-16T17:28:49;101680.50;;;9.20;44.54
59767;BME280;46248;58.364;25.582;2023-04-16T17:32:12;101681.47;;;9.15;44.69
59767;BME280;46248;58.364;25.582;2023-04-16T17:35:34;101677.28;;;9.10;44.49